Time;durP1;ratioP1;P1;durP2;ratioP2;P2;SDS_P1;SDS_P2;PMS_P1;PMS_P2;Temp;Humidity;BMP_temperature;BMP_pressure;BME280_temperature;BME280_humidity;BME280_pressure;Samples;Min_cycle;Max_cycle;Signal;HPM_P1;HPM_P2
2022/06/13 00:01:05;;;;;;;10.20;9.90;;;19.80;99.90;;;;;;6364331;22;20206;-82
2022/06/13 00:03:34;;;;;;;10.40;10.10;;;19.90;99.90;;;;;;6365514;22;20196;-81
2022/06/13 00:06:01;;;;;;;10.50;10.20;;;19.80;99.90;;;;;;6361541;22;20275;-81
2022/06/13 00:08:29;;;;;;;10.20;9.90;;;19.70;99.90;;;;;;6354918;22;20185;-82
2022/06/13 00:10:57;;;;;;;10.20;9.90;;;19.70;99.90;;;;;;6353748;22;20211;-81
2022/06/13 00:13:24;;;;;;;10.50;10.20;;;19.60;99.90;;;;;;6363984;22;20223;-81
2022/06/13 00:15:52;;;;;;;10.30;10.00;;;19.70;99.90;;;;;;6358787;22;20196;-81
2022/06/13 00:18:19;;;;;;;10.43;10.13;;;19.70;99.90;;;;;;6360950;22;20195;-82
2022/06/13 00:20:48;;;;;;;10.50;10.20;;;19.80;99.90;;;;;;6353633;22;20282;-81
2022/06/13 00:23:16;;;;;;;10.57;10.27;;;19.80;99.90;;;;;;6354280;22;20208;-81
2022/06/13 00:25:44;;;;;;;10.30;10.00;;;19.90;99.90;;;;;;6355819;22;20261;-81
2022/06/13 00:28:11;;;;;;;10.25;9.95;;;19.90;99.90;;;;;;6353823;22;20291;-81
2022/06/13 00:30:39;;;;;;;10.45;10.15;;;19.90;99.90;;;;;;6353888;22;20223;-80
2022/06/13 00:33:07;;;;;;;10.43;10.13;;;19.90;99.90;;;;;;6353391;22;20204;-81
2022/06/13 00:35:34;;;;;;;10.25;9.95;;;19.80;99.90;;;;;;6353882;22;20262;-81
2022/06/13 00:38:03;;;;;;;10.55;10.25;;;19.80;99.90;;;;;;6353379;22;20273;-81
2022/06/13 00:40:32;;;;;;;10.43;10.13;;;19.80;99.90;;;;;;6356093;22;20184;-80
2022/06/13 00:42:59;;;;;;;10.40;10.10;;;19.80;99.90;;;;;;6362393;22;20235;-80
2022/06/13 00:45:33;;;;;;;10.27;9.98;;;19.80;99.90;;;;;;6372411;22;20188;-81
2022/06/13 00:48:01;;;;;;;10.43;10.13;;;19.80;99.90;;;;;;6358404;22;20211;-80
2022/06/13 00:50:32;;;;;;;10.40;10.10;;;19.70;99.90;;;;;;6361394;22;20188;-80
2022/06/13 00:53:06;;;;;;;10.40;10.10;;;19.70;99.90;;;;;;6361813;22;20192;-80
2022/06/13 00:55:38;;;;;;;10.30;10.00;;;19.70;99.90;;;;;;6367666;22;20176;-80
2022/06/13 00:58:07;;;;;;;10.60;10.30;;;19.70;99.90;;;;;;6368203;22;20219;-80
2022/06/13 01:00:36;;;;;;;10.23;9.93;;;19.70;99.90;;;;;;6368094;22;20204;-80
2022/06/13 01:03:05;;;;;;;10.30;10.00;;;19.70;99.90;;;;;;6369276;22;20183;-82
2022/06/13 01:05:37;;;;;;;10.45;10.15;;;19.70;99.90;;;;;;6369131;22;20188;-81
2022/06/13 01:08:09;;;;;;;10.32;10.02;;;19.60;99.90;;;;;;6369843;22;20199;-81
2022/06/13 01:13:34;;;;;;;10.48;10.18;;;19.60;99.90;;;;;;6368480;22;20172;-82
2022/06/13 01:16:18;;;;;;;10.45;10.15;;;19.60;99.90;;;;;;6368697;22;20184;-82
2022/06/13 01:19:27;;;;;;;10.48;10.18;;;19.60;99.90;;;;;;6369358;22;20188;-82
2022/06/13 01:22:09;;;;;;;10.32;10.02;;;19.50;99.90;;;;;;6365370;22;20200;-81
2022/06/13 01:25:13;;;;;;;10.52;10.23;;;19.20;99.90;;;;;;6360187;22;20192;-80
2022/06/13 01:28:29;;;;;;;10.55;10.25;;;19.00;99.90;;;;;;6363741;22;20196;-80
2022/06/13 01:31:15;;;;;;;10.50;10.20;;;18.80;99.90;;;;;;6356692;22;20243;-81
2022/06/13 01:34:00;;;;;;;10.27;9.98;;;18.70;99.90;;;;;;6350379;22;20212;-81
2022/06/13 01:36:38;;;;;;;10.43;10.13;;;18.60;99.90;;;;;;6351234;22;20650;-81
2022/06/13 01:39:28;;;;;;;10.50;10.20;;;18.60;99.90;;;;;;6351181;22;20190;-81
2022/06/13 01:42:06;;;;;;;10.57;10.27;;;18.50;99.90;;;;;;6351350;22;20548;-81
2022/06/13 01:44:44;;;;;;;10.60;10.30;;;18.50;99.90;;;;;;6350429;22;20196;-82
2022/06/13 01:47:21;;;;;;;10.60;10.30;;;18.50;99.90;;;;;;6351472;22;20267;-81
2022/06/13 01:50:01;;;;;;;10.20;9.90;;;18.40;99.90;;;;;;6350427;22;20235;-82
2022/06/13 01:52:36;;;;;;;10.52;10.23;;;18.40;99.90;;;;;;6350757;22;20278;-81
2022/06/13 01:55:16;;;;;;;10.40;10.10;;;18.40;99.90;;;;;;6350707;22;20212;-81
2022/06/13 01:57:50;;;;;;;10.40;10.10;;;18.40;99.90;;;;;;6350632;22;20215;-82
2022/06/13 02:00:24;;;;;;;10.45;10.15;;;18.30;99.90;;;;;;6350815;22;20228;-81
2022/06/13 02:02:58;;;;;;;10.32;10.02;;;18.20;99.90;;;;;;6350788;22;20192;-81
2022/06/13 02:05:32;;;;;;;10.63;10.32;;;18.20;99.90;;;;;;6350060;22;20199;-82
2022/06/13 02:08:08;;;;;;;10.50;10.20;;;18.20;99.90;;;;;;6350689;22;20278;-81
2022/06/13 02:10:40;;;;;;;10.48;10.18;;;18.10;99.90;;;;;;6350440;22;20199;-82
2022/06/13 02:13:17;;;;;;;10.30;10.00;;;18.10;99.90;;;;;;6350200;22;20252;-81
2022/06/13 02:15:55;;;;;;;10.27;9.98;;;18.10;99.90;;;;;;6350419;22;20267;-81
2022/06/13 02:18:29;;;;;;;10.30;10.00;;;18.10;99.90;;;;;;6350638;22;20649;-81
2022/06/13 02:21:06;;;;;;;10.20;9.90;;;18.10;99.90;;;;;;6349562;22;20202;-79
2022/06/13 02:23:38;;;;;;;10.45;10.15;;;18.00;99.90;;;;;;6349961;22;20191;-79
2022/06/13 02:26:11;;;;;;;10.18;9.88;;;17.90;99.90;;;;;;6349662;22;20227;-80
2022/06/13 02:28:46;;;;;;;10.10;9.80;;;17.80;99.90;;;;;;6349294;22;20192;-80
2022/06/13 02:31:18;;;;;;;10.40;10.10;;;17.80;99.90;;;;;;6349493;22;20230;-80
2022/06/13 02:33:54;;;;;;;10.25;9.95;;;17.70;99.90;;;;;;6350780;22;20223;-80
2022/06/13 02:36:30;;;;;;;10.32;10.02;;;17.70;99.90;;;;;;6350113;22;20224;-80
2022/06/13 02:39:03;;;;;;;10.25;9.95;;;17.60;99.90;;;;;;6350321;22;20223;-80
2022/06/13 02:41:41;;;;;;;10.30;10.00;;;17.60;99.90;;;;;;6349756;22;20196;-79
2022/06/13 02:44:16;;;;;;;10.98;10.68;;;17.50;99.90;;;;;;6350981;22;20227;-79
2022/06/13 02:46:49;;;;;;;11.10;10.80;;;17.50;99.90;;;;;;6351027;22;20191;-79
2022/06/13 02:49:22;;;;;;;10.90;10.60;;;17.50;99.90;;;;;;6352126;22;20198;-79
2022/06/13 02:51:59;;;;;;;10.90;10.60;;;17.50;99.90;;;;;;6351421;22;20199;-80
2022/06/13 02:54:36;;;;;;;10.95;10.65;;;17.50;99.90;;;;;;6350917;22;20194;-80
2022/06/13 02:57:27;;;;;;;10.88;10.57;;;17.50;99.90;;;;;;6350699;22;20219;-79
2022/06/13 03:00:20;;;;;;;10.82;10.52;;;17.40;99.90;;;;;;6350770;22;20275;-80
2022/06/13 03:03:10;;;;;;;11.07;10.77;;;17.40;99.90;;;;;;6351249;22;20199;-80
2022/06/13 03:06:00;;;;;;;11.02;10.73;;;17.40;99.90;;;;;;6350618;22;20267;-80
2022/06/13 03:08:53;;;;;;;11.10;10.80;;;17.30;99.90;;;;;;6350791;22;20247;-80
2022/06/13 03:11:38;;;;;;;11.60;11.20;;;17.30;99.90;;;;;;6350447;22;20223;-80
2022/06/13 03:14:19;;;;;;;11.50;11.10;;;17.20;99.90;;;;;;6350776;22;20192;-80
2022/06/13 03:16:56;;;;;;;11.27;10.90;;;17.20;99.90;;;;;;6351145;22;20188;-80
2022/06/13 03:19:29;;;;;;;11.40;11.00;;;17.20;99.90;;;;;;6350360;22;20275;-80
2022/06/13 03:22:11;;;;;;;11.00;10.70;;;17.20;99.90;;;;;;6350217;22;20218;-80
2022/06/13 03:24:48;;;;;;;11.10;10.80;;;17.10;99.90;;;;;;6350009;22;20188;-80
2022/06/13 03:27:24;;;;;;;11.10;10.80;;;17.10;99.90;;;;;;6349729;22;20236;-80
2022/06/13 03:30:01;;;;;;;11.23;10.90;;;17.10;99.90;;;;;;6350744;22;20266;-79
2022/06/13 03:32:36;;;;;;;10.80;10.50;;;17.00;99.90;;;;;;6350006;22;20191;-80
2022/06/13 03:35:10;;;;;;;11.20;10.90;;;17.00;99.90;;;;;;6348996;22;20662;-80
2022/06/13 03:37:43;;;;;;;10.90;10.60;;;17.00;99.90;;;;;;6349926;22;20253;-80
2022/06/13 03:40:17;;;;;;;11.00;10.70;;;16.90;99.90;;;;;;6349570;22;20199;-81
2022/06/13 03:42:50;;;;;;;11.10;10.80;;;16.80;99.90;;;;;;6349877;22;20200;-80
2022/06/13 03:45:23;;;;;;;10.90;10.60;;;16.80;99.90;;;;;;6350067;22;20219;-80
2022/06/13 03:47:58;;;;;;;10.90;10.60;;;16.80;99.90;;;;;;6349944;22;20219;-80
2022/06/13 03:50:31;;;;;;;10.98;10.68;;;16.70;99.90;;;;;;6350304;22;20184;-81
2022/06/13 03:53:04;;;;;;;10.95;10.65;;;16.70;99.90;;;;;;6348970;22;20303;-81
2022/06/13 03:55:39;;;;;;;10.88;10.57;;;16.60;99.90;;;;;;6349303;22;20192;-80
2022/06/13 03:58:13;;;;;;;11.30;10.90;;;16.60;99.90;;;;;;6350308;22;20252;-79
2022/06/13 04:00:47;;;;;;;11.00;10.70;;;16.50;99.90;;;;;;6350607;22;20185;-80
2022/06/13 04:03:16;;;;;;;11.43;11.02;;;16.40;99.90;;;;;;6350725;22;20199;-80
2022/06/13 04:05:56;;;;;;;11.23;10.93;;;16.40;99.90;;;;;;6351445;22;20200;-80
2022/06/13 04:08:27;;;;;;;11.02;10.73;;;16.30;99.90;;;;;;6352346;22;20222;-80
2022/06/13 04:11:11;;;;;;;11.30;10.90;;;16.30;99.90;;;;;;6351591;22;20207;-80
2022/06/13 04:13:56;;;;;;;11.35;10.95;;;16.20;99.90;;;;;;6351191;22;20308;-80
2022/06/13 04:16:44;;;;;;;11.55;11.15;;;16.20;99.90;;;;;;6353863;22;20199;-80
2022/06/13 04:19:36;;;;;;;10.98;10.68;;;16.30;99.90;;;;;;6350261;22;20192;-80
2022/06/13 04:22:17;;;;;;;11.50;11.10;;;16.20;99.90;;;;;;6348393;22;20200;-80
2022/06/13 04:24:59;;;;;;;11.20;10.90;;;16.20;99.90;;;;;;6349704;22;20215;-80
2022/06/13 04:27:35;;;;;;;11.40;11.00;;;16.20;99.90;;;;;;6349844;22;20188;-79
2022/06/13 04:30:10;;;;;;;11.18;10.88;;;16.20;99.90;;;;;;6349709;22;20275;-80
2022/06/13 04:32:45;;;;;;;11.00;10.70;;;16.30;99.90;;;;;;6372945;22;20195;-78
2022/06/13 04:35:13;;;;;;;10.80;10.50;;;16.30;99.90;;;;;;6372714;22;20187;-79
2022/06/13 04:37:42;;;;;;;10.70;10.40;;;16.30;99.90;;;;;;6363797;22;20208;-80
2022/06/13 04:40:16;;;;;;;10.70;10.40;;;16.30;99.90;;;;;;6354872;22;20200;-80
2022/06/13 04:42:44;;;;;;;10.63;10.32;;;16.40;99.90;;;;;;6352834;22;20207;-80
2022/06/13 04:45:23;;;;;;;10.57;10.27;;;16.40;99.90;;;;;;6352228;22;20199;-80
2022/06/13 04:47:53;;;;;;;10.45;10.15;;;16.50;99.90;;;;;;6352378;22;20199;-79
2022/06/13 04:50:29;;;;;;;10.63;10.32;;;16.50;99.90;;;;;;6352110;22;20231;-80
2022/06/13 04:53:00;;;;;;;10.77;10.48;;;16.60;99.90;;;;;;6352063;22;20235;-80
2022/06/13 04:55:40;;;;;;;10.40;10.10;;;16.70;99.90;;;;;;6351376;22;20240;-80
2022/06/13 04:58:19;;;;;;;10.60;10.30;;;16.80;99.90;;;;;;6351357;22;20195;-80
2022/06/13 05:00:48;;;;;;;10.85;10.55;;;16.90;99.90;;;;;;6358370;22;20204;-79
2022/06/13 05:03:24;;;;;;;10.90;10.60;;;16.90;99.90;;;;;;6366605;22;20196;-79
2022/06/13 05:05:55;;;;;;;11.15;10.85;;;17.00;99.90;;;;;;6357848;22;20192;-79
2022/06/13 05:08:26;;;;;;;10.80;10.50;;;17.00;99.90;;;;;;6357253;22;20218;-81
2022/06/13 05:11:04;;;;;;;10.88;10.57;;;17.10;99.90;;;;;;6355842;22;20203;-80
2022/06/13 05:13:35;;;;;;;10.82;10.52;;;17.20;99.90;;;;;;6350370;22;20235;-83
2022/06/13 05:16:16;;;;;;;10.70;10.40;;;17.30;99.90;;;;;;6354485;22;20190;-83
2022/06/13 05:19:11;;;;;;;10.70;10.40;;;17.40;99.90;;;;;;6356727;22;20203;-83
2022/06/13 05:21:56;;;;;;;11.00;10.70;;;17.40;99.90;;;;;;6361191;22;20180;-83
2022/06/13 05:24:53;;;;;;;10.95;10.65;;;17.50;99.90;;;;;;6343609;22;20185;-83
2022/06/13 05:27:31;;;;;;;11.10;10.80;;;17.40;99.90;;;;;;6343564;22;20188;-82
2022/06/13 05:30:00;;;;;;;10.75;10.45;;;17.40;99.90;;;;;;6325019;22;20220;-83
2022/06/13 05:32:29;;;;;;;10.80;10.50;;;17.30;99.90;;;;;;6322417;22;20204;-85
2022/06/13 05:35:01;;;;;;;10.90;10.60;;;17.30;99.90;;;;;;6322322;22;20189;-83
2022/06/13 05:37:29;;;;;;;11.05;10.75;;;17.40;99.90;;;;;;6327020;22;20195;-83
2022/06/13 05:39:57;;;;;;;10.95;10.65;;;17.40;99.90;;;;;;6325552;22;20217;-86
2022/06/13 05:42:39;;;;;;;11.02;10.73;;;17.40;99.90;;;;;;6326479;22;20201;-84
2022/06/13 05:45:14;;;;;;;11.23;10.93;;;17.60;99.90;;;;;;6323399;22;20189;-85
2022/06/13 05:47:44;;;;;;;11.10;10.80;;;17.70;99.90;;;;;;6323822;22;20193;-84
2022/06/13 05:50:15;;;;;;;11.00;10.70;;;17.80;99.90;;;;;;6322723;22;20196;-85
2022/06/13 05:52:44;;;;;;;11.00;10.70;;;18.00;99.90;;;;;;6324391;22;20200;-86
2022/06/13 05:55:13;;;;;;;10.82;10.52;;;18.10;99.90;;;;;;6322867;22;20208;-86
2022/06/13 05:57:44;;;;;;;11.20;10.90;;;18.10;99.90;;;;;;6323460;22;20201;-85
2022/06/13 06:00:19;;;;;;;10.80;10.50;;;18.20;99.90;;;;;;6324642;22;20191;-84
2022/06/13 06:02:49;;;;;;;10.82;10.52;;;18.20;99.90;;;;;;6327180;22;20207;-83
2022/06/13 06:05:18;;;;;;;10.90;10.60;;;18.20;99.90;;;;;;6327525;22;20196;-83
2022/06/13 06:07:48;;;;;;;10.90;10.60;;;18.20;99.90;;;;;;6325719;22;20209;-83
2022/06/13 06:10:20;;;;;;;10.77;10.48;;;18.30;99.90;;;;;;6326797;22;20200;-82
2022/06/13 06:12:49;;;;;;;11.20;10.90;;;18.30;99.90;;;;;;6326449;22;20213;-82
2022/06/13 06:15:17;;;;;;;11.60;11.20;;;18.40;99.90;;;;;;6326660;22;20375;-83
2022/06/13 06:17:46;;;;;;;10.95;10.65;;;18.40;99.90;;;;;;6327521;22;20208;-82
2022/06/13 06:23:02;;;;;;;11.10;10.80;;;18.70;99.90;;;;;;6326156;22;20196;-84
2022/06/13 06:25:32;;;;;;;11.07;10.77;;;18.70;99.90;;;;;;6324925;22;20193;-84
2022/06/13 06:28:10;;;;;;;10.98;10.68;;;18.80;99.90;;;;;;6325661;22;20225;-84
2022/06/13 06:30:39;;;;;;;10.98;10.68;;;18.90;99.90;;;;;;6325615;22;20193;-84
2022/06/13 06:33:09;;;;;;;11.02;10.73;;;18.90;99.90;;;;;;6326290;22;20264;-83
2022/06/13 06:35:40;;;;;;;11.18;10.88;;;18.90;99.90;;;;;;6326805;22;20189;-87
2022/06/13 06:38:09;;;;;;;11.30;11.00;;;18.90;99.90;;;;;;6327376;22;20243;-84
2022/06/13 06:40:39;;;;;;;11.60;11.20;;;18.90;99.90;;;;;;6324690;22;20189;-84
2022/06/13 06:43:11;;;;;;;11.20;10.90;;;18.90;99.90;;;;;;6324784;22;20204;-85
2022/06/13 06:45:41;;;;;;;11.15;10.85;;;19.00;99.90;;;;;;6323956;22;20189;-84
2022/06/13 06:48:16;;;;;;;11.40;11.10;;;19.10;99.90;;;;;;6325801;22;20224;-85
2022/06/13 06:50:48;;;;;;;11.10;10.80;;;19.20;99.90;;;;;;6326935;22;20256;-84
2022/06/13 07:01:46;;;;;;;10.90;10.60;;;19.30;99.90;;;;;;6339703;22;20180;-86
2022/06/13 07:04:14;;;;;;;10.63;10.32;;;19.30;99.90;;;;;;6334077;22;20223;-86
2022/06/13 07:06:43;;;;;;;10.95;10.65;;;19.40;99.90;;;;;;6334674;22;20189;-85
2022/06/13 07:09:13;;;;;;;10.90;10.60;;;19.50;99.90;;;;;;6333158;22;20197;-86
2022/06/13 07:12:01;;;;;;;11.13;10.82;;;19.60;99.90;;;;;;6331367;22;20323;-86
2022/06/13 07:14:39;;;;;;;11.00;10.70;;;19.70;99.90;;;;;;6326752;22;20189;-86
2022/06/13 07:17:09;;;;;;;11.20;10.90;;;19.90;99.90;;;;;;6326970;22;20217;-86
2022/06/13 07:19:38;;;;;;;10.75;10.45;;;20.00;99.90;;;;;;6327104;22;20211;-87
2022/06/13 07:22:08;;;;;;;11.00;10.70;;;20.20;99.90;;;;;;6327296;22;20208;-87
2022/06/13 07:24:36;;;;;;;11.20;10.90;;;20.40;99.90;;;;;;6327021;22;20211;-86
2022/06/13 07:27:06;;;;;;;11.10;10.80;;;20.50;99.90;;;;;;6327903;22;20261;-86
2022/06/13 07:29:43;;;;;;;11.20;10.90;;;20.50;99.90;;;;;;6328185;22;20189;-85
2022/06/13 07:32:21;;;;;;;11.20;10.90;;;20.60;99.90;;;;;;6327625;22;20196;-86
2022/06/13 07:43:21;;;;;;;11.30;11.00;;;20.80;99.90;;;;;;6325126;22;20201;-86
2022/06/13 07:45:59;;;;;;;11.30;11.00;;;20.70;99.90;;;;;;6326625;22;20192;-85
2022/06/13 07:48:55;;;;;;;11.18;10.88;;;20.80;99.90;;;;;;6326013;22;20193;-86
2022/06/13 07:51:25;;;;;;;11.20;10.90;;;20.80;99.90;;;;;;6322232;22;20193;-84
2022/06/13 07:53:54;;;;;;;11.20;10.90;;;20.90;99.90;;;;;;6326023;22;20193;-85
2022/06/13 07:56:24;;;;;;;11.23;10.93;;;21.00;99.90;;;;;;6329446;22;20209;-84
2022/06/13 07:58:55;;;;;;;11.38;11.07;;;21.00;99.90;;;;;;6342263;22;20193;-83
2022/06/13 08:01:31;;;;;;;11.55;11.15;;;21.00;99.90;;;;;;6342893;22;20180;-83
2022/06/13 08:04:00;;;;;;;11.30;11.00;;;21.10;99.90;;;;;;6333394;22;20293;-86
2022/06/13 08:06:30;;;;;;;11.10;10.80;;;21.20;99.90;;;;;;6329399;22;20243;-85
2022/06/13 08:08:59;;;;;;;10.85;10.55;;;21.20;99.90;;;;;;6325643;22;20185;-84
2022/06/13 08:11:38;;;;;;;10.85;10.55;;;21.20;99.90;;;;;;6323731;22;20193;-85
2022/06/13 08:14:08;;;;;;;10.70;10.40;;;21.30;99.90;;;;;;6325161;22;20188;-85
2022/06/13 08:16:47;;;;;;;10.80;10.50;;;21.30;99.90;;;;;;6325933;22;20267;-83
2022/06/13 08:19:15;;;;;;;10.75;10.45;;;21.20;99.90;;;;;;6327223;22;20223;-84
2022/06/13 08:21:44;;;;;;;10.60;10.30;;;21.20;99.90;;;;;;6327059;22;20209;-85
2022/06/13 08:24:14;;;;;;;10.80;10.50;;;21.20;99.90;;;;;;6327146;22;20676;-84
2022/06/13 08:26:44;;;;;;;10.30;10.00;;;21.20;99.90;;;;;;6325826;22;20193;-84
2022/06/13 08:29:13;;;;;;;10.68;10.38;;;21.10;99.90;;;;;;6325102;22;20201;-84
2022/06/13 08:31:53;;;;;;;10.60;10.30;;;21.10;99.90;;;;;;6325986;22;20216;-85
2022/06/13 08:34:22;;;;;;;10.60;10.30;;;21.10;99.90;;;;;;6327286;22;20196;-84
2022/06/13 08:36:52;;;;;;;10.40;10.10;;;21.30;99.90;;;;;;6325907;22;20212;-86
2022/06/13 08:39:21;;;;;;;10.75;10.45;;;21.30;99.90;;;;;;6326811;22;20212;-85
2022/06/13 08:41:59;;;;;;;11.15;10.85;;;21.00;99.90;;;;;;6325326;22;20204;-84
2022/06/13 08:44:47;;;;;;;11.07;10.77;;;20.90;99.90;;;;;;6327246;22;20195;-83
2022/06/13 08:47:34;;;;;;;10.73;10.43;;;20.90;99.90;;;;;;6327018;22;20192;-83
2022/06/13 08:50:20;;;;;;;10.98;10.68;;;21.00;99.90;;;;;;6327298;22;20256;-83
2022/06/13 08:53:00;;;;;;;10.63;10.32;;;21.30;99.90;;;;;;6326528;22;20243;-83
2022/06/13 08:55:37;;;;;;;10.80;10.50;;;21.60;99.90;;;;;;6327341;22;20201;-84
2022/06/13 08:58:24;;;;;;;10.48;10.18;;;21.90;99.90;;;;;;6327676;22;20193;-84
2022/06/13 09:01:03;;;;;;;10.68;10.38;;;22.20;99.90;;;;;;6327722;22;20188;-85
2022/06/13 09:03:40;;;;;;;11.00;10.70;;;22.40;99.90;;;;;;6326017;22;20220;-85
2022/06/13 09:06:19;;;;;;;11.20;10.90;;;22.30;99.90;;;;;;6325798;22;20188;-84
2022/06/13 09:08:57;;;;;;;10.73;10.43;;;22.20;99.90;;;;;;6331711;22;20189;-85
2022/06/13 09:11:45;;;;;;;10.80;10.50;;;22.30;99.90;;;;;;6325374;22;20189;-84
2022/06/13 09:14:22;;;;;;;10.82;10.52;;;22.60;99.90;;;;;;6326341;22;20187;-83
2022/06/13 09:17:01;;;;;;;11.05;10.75;;;22.50;99.90;;;;;;6328377;22;20189;-81
2022/06/13 09:19:40;;;;;;;10.90;10.60;;;22.20;99.90;;;;;;6326427;22;20192;-81
2022/06/13 09:22:18;;;;;;;10.80;10.50;;;22.30;99.90;;;;;;6326830;22;20197;-82
2022/06/13 09:24:55;;;;;;;10.60;10.30;;;22.50;99.90;;;;;;6325830;22;20191;-83
2022/06/13 09:27:27;;;;;;;10.90;10.60;;;22.60;99.90;;;;;;6325118;22;20219;-81
2022/06/13 09:30:02;;;;;;;10.85;10.55;;;22.30;99.90;;;;;;6332319;22;20185;-81
2022/06/13 09:32:35;;;;;;;10.90;10.60;;;22.00;99.90;;;;;;6331895;22;20217;-81
2022/06/13 09:35:19;;;;;;;10.60;10.30;;;21.70;99.90;;;;;;6327037;22;20251;-82
2022/06/13 09:37:52;;;;;;;10.80;10.50;;;21.90;99.90;;;;;;6324724;22;20193;-81
2022/06/13 09:40:28;;;;;;;11.07;10.77;;;22.20;99.90;;;;;;6325710;22;20200;-82
2022/06/13 09:43:15;;;;;;;10.77;10.48;;;22.50;99.90;;;;;;6325411;22;20200;-81
2022/06/13 09:45:55;;;;;;;10.85;10.55;;;22.90;99.90;;;;;;6326144;22;20212;-81
2022/06/13 09:48:39;;;;;;;10.65;10.35;;;23.00;99.90;;;;;;6326337;22;20213;-81
2022/06/13 09:51:35;;;;;;;10.70;10.40;;;23.00;99.90;;;;;;6326748;22;20193;-83
2022/06/13 09:54:14;;;;;;;10.55;10.25;;;22.80;99.90;;;;;;6325307;22;20192;-82
2022/06/13 09:56:52;;;;;;;10.90;10.60;;;22.60;99.90;;;;;;6322674;22;20224;-82
2022/06/13 09:59:38;;;;;;;10.85;10.55;;;22.60;99.90;;;;;;6325383;22;20200;-81
2022/06/13 10:02:19;;;;;;;11.07;10.77;;;22.80;99.90;;;;;;6325790;22;20204;-82
2022/06/13 10:05:03;;;;;;;10.95;10.65;;;23.10;99.90;;;;;;6327552;22;20199;-84
2022/06/13 10:07:42;;;;;;;11.10;10.80;;;23.30;99.90;;;;;;6328440;22;20189;-85
2022/06/13 10:10:20;;;;;;;11.00;10.70;;;23.30;99.90;;;;;;6323733;22;20220;-86
2022/06/13 10:13:14;;;;;;;10.80;10.50;;;23.40;99.90;;;;;;6324140;22;20200;-85
2022/06/13 10:19:07;;;;;;;10.93;10.63;;;23.10;99.90;;;;;;6324405;22;20279;-83
2022/06/13 10:21:47;;;;;;;10.82;10.52;;;22.50;99.90;;;;;;6323904;22;20220;-81
2022/06/13 10:24:42;;;;;;;10.50;10.20;;;22.60;99.90;;;;;;6325846;22;20189;-82
2022/06/13 10:27:31;;;;;;;10.38;10.07;;;23.20;99.90;;;;;;6324369;22;20189;-84
2022/06/13 10:30:24;;;;;;;10.40;10.10;;;22.70;99.90;;;;;;6323683;22;20193;-85
2022/06/13 10:33:13;;;;;;;10.57;10.27;;;23.00;99.90;;;;;;6323650;22;20293;-84
2022/06/13 10:35:51;;;;;;;10.40;10.10;;;23.00;99.90;;;;;;6323621;22;20724;-85
2022/06/13 10:38:57;;;;;;;10.52;10.23;;;23.00;99.90;;;;;;6324446;22;20193;-85
2022/06/13 10:41:36;;;;;;;10.70;10.40;;;23.00;99.90;;;;;;6323545;22;20204;-85
2022/06/13 10:44:12;;;;;;;10.70;10.40;;;23.00;99.90;;;;;;6325309;22;20520;-83
2022/06/13 10:46:44;;;;;;;10.60;10.30;;;23.20;99.90;;;;;;6324291;22;20200;-84
2022/06/13 10:49:20;;;;;;;10.48;10.18;;;23.60;99.90;;;;;;6323728;22;20199;-84
2022/06/13 10:52:00;;;;;;;10.68;10.38;;;23.40;99.90;;;;;;6326464;22;20226;-84
2022/06/13 10:54:37;;;;;;;10.40;10.10;;;23.10;99.90;;;;;;6323260;22;20223;-84
2022/06/13 10:57:15;;;;;;;10.40;10.10;;;23.00;99.90;;;;;;6325304;22;20200;-86
2022/06/13 10:59:45;;;;;;;10.40;10.10;;;22.50;99.90;;;;;;6324435;22;20216;-84
2022/06/13 11:02:34;;;;;;;10.60;10.30;;;22.10;99.90;;;;;;6326386;22;20200;-84
2022/06/13 11:05:10;;;;;;;10.57;10.27;;;22.40;99.90;;;;;;6333055;22;20248;-83
2022/06/13 11:07:47;;;;;;;10.70;10.40;;;22.50;99.90;;;;;;6326589;22;20185;-83
2022/06/13 11:10:34;;;;;;;10.63;10.32;;;22.20;99.90;;;;;;6329386;22;20196;-82
2022/06/13 11:13:17;;;;;;;10.40;10.10;;;22.10;99.90;;;;;;6325522;22;20209;-82
2022/06/13 11:24:47;;;;;;;10.77;10.48;;;22.90;99.90;;;;;;6347296;22;20185;-86
2022/06/13 11:27:43;;;;;;;11.20;10.90;;;22.70;99.90;;;;;;6318026;22;20189;-86
2022/06/13 11:33:37;;;;;;;10.80;10.50;;;22.90;99.90;;;;;;6319188;22;20189;-87
2022/06/13 11:36:23;;;;;;;11.05;10.75;;;22.60;99.90;;;;;;6317775;22;20201;-86
2022/06/13 11:39:01;;;;;;;10.70;10.40;;;22.40;99.90;;;;;;6318233;22;20204;-84
2022/06/13 11:41:39;;;;;;;10.32;10.02;;;22.20;99.90;;;;;;6318166;22;20206;-85
2022/06/13 11:44:10;;;;;;;10.48;10.18;;;22.10;99.90;;;;;;6335159;22;20181;-86
2022/06/13 11:47:07;;;;;;;10.85;10.55;;;22.40;99.90;;;;;;6340085;22;20193;-87
2022/06/13 11:49:42;;;;;;;10.73;10.43;;;22.90;99.90;;;;;;6339024;22;20223;-85
2022/06/13 11:55:36;;;;;;;11.07;10.77;;;23.90;99.90;;;;;;6341378;22;20181;-86
2022/06/13 11:58:23;;;;;;;11.10;10.80;;;24.50;99.90;;;;;;6332568;22;20176;-86
2022/06/13 12:00:59;;;;;;;10.95;10.65;;;24.80;99.90;;;;;;6323448;22;20220;-87
2022/06/13 12:03:42;;;;;;;10.77;10.48;;;23.80;99.90;;;;;;6319111;22;20218;-88
2022/06/13 12:06:16;;;;;;;10.77;10.48;;;23.60;99.90;;;;;;6317217;22;20258;-85
2022/06/13 12:08:53;;;;;;;10.98;10.68;;;23.50;99.90;;;;;;6317320;22;20250;-87
2022/06/13 12:11:25;;;;;;;11.10;10.80;;;23.70;99.90;;;;;;6318313;22;20283;-84
2022/06/13 12:14:10;;;;;;;10.88;10.57;;;24.00;99.90;;;;;;6318351;22;20220;-85
2022/06/13 12:16:46;;;;;;;10.50;10.20;;;24.10;99.90;;;;;;6317776;22;20266;-84
2022/06/13 12:19:35;;;;;;;10.50;10.20;;;24.20;99.90;;;;;;6322362;22;20224;-84
2022/06/13 12:22:15;;;;;;;10.43;10.13;;;24.70;99.90;;;;;;6319228;22;20246;-85
2022/06/13 12:25:03;;;;;;;10.52;10.23;;;25.40;99.90;;;;;;6318324;22;20247;-86
2022/06/13 12:27:58;;;;;;;10.77;10.48;;;25.90;99.90;;;;;;6314808;22;20204;-82
2022/06/13 12:30:54;;;;;;;10.68;10.38;;;25.90;99.90;;;;;;6319841;22;20188;-86
2022/06/13 12:34:07;;;;;;;10.75;10.45;;;25.00;99.90;;;;;;6318771;22;20193;-86
2022/06/13 12:37:22;;;;;;;11.20;10.90;;;24.40;99.90;;;;;;6318327;22;20197;-84
2022/06/13 12:40:08;;;;;;;11.10;10.80;;;24.90;99.90;;;;;;6291507;22;20291;-83
2022/06/13 12:48:56;;;;;;;10.75;10.45;;;25.10;99.90;;;;;;6319405;22;20192;-84
2022/06/13 12:51:34;;;;;;;10.77;10.48;;;24.80;99.90;;;;;;6323667;22;20208;-86
2022/06/13 12:54:47;;;;;;;10.40;10.10;;;25.00;99.90;;;;;;6318123;22;20259;-81
2022/06/13 12:57:47;;;;;;;10.60;10.30;;;24.90;99.90;;;;;;6318932;22;20188;-85
2022/06/13 13:00:20;;;;;;;10.45;10.15;;;25.20;99.90;;;;;;6318192;22;20193;-84
2022/06/13 13:03:17;;;;;;;10.65;10.35;;;24.20;99.90;;;;;;6318088;22;20197;-84
2022/06/13 13:05:56;;;;;;;10.30;10.00;;;23.70;99.90;;;;;;6317969;22;20207;-86
2022/06/13 13:08:48;;;;;;;10.73;10.43;;;23.60;99.90;;;;;;6318449;22;20250;-84
2022/06/13 13:11:37;;;;;;;11.15;10.85;;;23.50;99.90;;;;;;6318467;22;20197;-84
2022/06/13 13:14:17;;;;;;;11.00;10.70;;;23.50;99.90;;;;;;6319040;22;20196;-82
2022/06/13 13:16:56;;;;;;;10.88;10.57;;;23.00;99.90;;;;;;6335095;22;20189;-84
2022/06/13 13:19:44;;;;;;;11.13;10.82;;;23.10;99.90;;;;;;6342310;22;20169;-83
2022/06/13 13:22:20;;;;;;;10.80;10.50;;;23.40;99.90;;;;;;6342990;22;20177;-87
2022/06/13 13:25:15;;;;;;;10.88;10.57;;;24.10;99.90;;;;;;6342525;22;20211;-83
2022/06/13 13:28:03;;;;;;;11.13;10.82;;;24.70;99.90;;;;;;6342885;22;20225;-80
2022/06/13 13:30:39;;;;;;;10.90;10.60;;;25.00;99.90;;;;;;6342614;22;20173;-83
2022/06/13 13:33:39;;;;;;;11.02;10.73;;;25.30;99.90;;;;;;6343227;22;20189;-83
2022/06/13 13:36:15;;;;;;;11.20;10.90;;;25.40;99.90;;;;;;6334397;22;20185;-80
2022/06/13 13:38:48;;;;;;;10.90;10.60;;;25.60;99.90;;;;;;6336261;22;20196;-82
2022/06/13 13:41:22;;;;;;;10.73;10.43;;;25.70;99.90;;;;;;6324481;22;20197;-83
2022/06/13 13:43:57;;;;;;;10.80;10.50;;;25.80;99.90;;;;;;6322439;22;20194;-83
2022/06/13 13:46:31;;;;;;;10.60;10.30;;;24.50;99.90;;;;;;6321625;22;20258;-84
2022/06/13 13:49:05;;;;;;;10.60;10.30;;;24.30;99.90;;;;;;6319267;22;20228;-85
2022/06/13 13:51:38;;;;;;;10.43;10.13;;;23.60;99.90;;;;;;6320865;22;20238;-83
2022/06/13 13:54:15;;;;;;;10.48;10.18;;;23.50;99.90;;;;;;6320442;22;20196;-84
2022/06/13 13:56:50;;;;;;;10.88;10.57;;;24.10;99.90;;;;;;6319782;22;20192;-83
2022/06/13 13:59:33;;;;;;;10.50;10.20;;;24.80;99.90;;;;;;6328596;22;20184;-86
2022/06/13 14:02:13;;;;;;;10.70;10.40;;;24.90;99.90;;;;;;6324821;22;20185;-83
2022/06/13 14:05:10;;;;;;;11.20;10.90;;;25.00;99.90;;;;;;6318698;22;20197;-85
2022/06/13 14:08:03;;;;;;;10.98;10.68;;;25.30;99.90;;;;;;6318738;22;20200;-84